Story, WY (82842)

2:36 AM MDT on July 31, 2016 (GMT -0600)
| | Change Station

Elev -9999 ft 0.00 °N, 0.00 °E | Updated

Clear
Clear
68 °F
Feels Like 68 °F
N
8
Wind Variable Wind from West
Gusts mph

Today
High -- | Low -- °F
--% Chance of Precip.
Yesterday
High -- | Low -- °F
Precip. -- in
Pressure 29.62 in
Visibility 10.0 miles
Clouds Clear
Dew Point 45 °F
Humidity 44%
Rainfall --
Snow Depth Not available.
5:53 AM 8:33 PM
Waning Crescent, 8% visible
METAR KSHR 310753Z AUTO VRB03KT 10SM CLR 21/08 A2978 RMK AO2 SLP031 T02060083
Pressure 29.62 in
Visibility 10.0 miles
Clouds Clear
Dew Point 45 °F
Humidity 44%
Rainfall --
Snow Depth Not available.
5:53 AM 8:33 PM
Waning Crescent, 8% visible
METAR KSHR 310753Z AUTO VRB03KT 10SM CLR 21/08 A2978 RMK AO2 SLP031 T02060083

10-Day Weather Forecast

Almanac

Astronomy

Jul. 31, 2016 Rise Set
Actual Time
Civil Twilight
Nautical Twilight
Astronomical Twilight
Moon
Length of Visible Light
Length of Day
Tomorrow will be .
, % of the Moon is Illuminated

Today's Extremes

State Highs State Lows

Community

WunderPhotos

Upload Photos

1,928,768 photos uploaded!

WunderBlog® & News

Nearby

Air Quality

  Air Quality AQ Index Pollutant
Not available.

Snow Depth

Station Depth Elevation

Earthquake Activity

City Distance Mag. Time & Date
Minimum magnitude displayed is 2.5.

Coastal Water Temperatures

Place Temperature

Stations

Nearby Weather Stations

Station Location Temp. Windchill Dew Point Humidity Wind Precip. Elev Updated Type
                   

Watches & Warnings

There are currently no watches in effect.